Time;durP1;ratioP1;P1;durP2;ratioP2;P2;SDS_P1;SDS_P2;PMS_P1;PMS_P2;Temp;Humidity;BMP_temperature;BMP_pressure;BME280_temperature;BME280_humidity;BME280_pressure;Samples;Min_cycle;Max_cycle;Signal;HPM_P1;HPM_P2
2024/01/17 00:01:22;;;;;;;29.88;11.65;;;;;;;-2.80;87.57;100028.69;6221740;23;20020;-73
2024/01/17 00:03:49;;;;;;;26.17;10.68;;;;;;;-2.86;86.92;100019.22;6258234;22;20024;-72
2024/01/17 00:06:16;;;;;;;25.80;10.52;;;;;;;-2.96;87.13;100017.88;6272464;22;20019;-72
2024/01/17 00:08:43;;;;;;;26.83;10.30;;;;;;;-2.91;86.15;100015.91;6273232;22;20074;-71
2024/01/17 00:11:10;;;;;;;24.63;9.88;;;;;;;-2.97;86.60;100010.00;6272541;22;20481;-72
2024/01/17 00:13:36;;;;;;;27.05;10.07;;;;;;;-3.00;86.48;100013.66;6273712;22;20023;-71
2024/01/17 00:16:03;;;;;;;24.63;9.95;;;;;;;-2.92;85.78;100019.47;6273239;22;20030;-71
2024/01/17 00:18:30;;;;;;;33.28;10.73;;;;;;;-3.00;86.21;100013.66;6273695;22;20022;-71
2024/01/17 00:20:56;;;;;;;33.85;11.10;;;;;;;-3.04;86.63;100015.59;6273462;22;20516;-74
2024/01/17 00:23:24;;;;;;;30.02;10.57;;;;;;;-3.09;86.54;100014.06;6273349;22;20081;-73
2024/01/17 00:25:51;;;;;;;29.38;10.18;;;;;;;-3.10;86.54;100014.97;6273516;22;20019;-72
2024/01/17 00:28:17;;;;;;;31.63;10.93;;;;;;;-3.00;86.04;100005.69;6273906;22;20023;-72
2024/01/17 00:30:44;;;;;;;21.05;10.43;;;;;;;-3.17;86.54;100008.22;6274378;22;20023;-72
2024/01/17 00:33:10;;;;;;;22.08;10.23;;;;;;;-3.09;86.62;100000.78;6272663;22;20027;-73
2024/01/17 00:35:39;;;;;;;24.60;10.27;;;;;;;-3.19;86.35;99996.81;6271843;22;20020;-70
2024/01/17 00:38:05;;;;;;;24.75;10.15;;;;;;;-3.18;85.67;99990.59;6270616;22;20519;-71
2024/01/17 00:40:33;;;;;;;29.45;11.40;;;;;;;-3.16;86.70;99986.06;6246197;22;20027;-72
2024/01/17 00:43:00;;;;;;;22.90;10.63;;;;;;;-3.26;86.17;99982.94;6272933;22;20357;-72
2024/01/17 00:45:27;;;;;;;22.67;10.02;;;;;;;-3.11;86.18;99987.59;6271695;22;20054;-73
2024/01/17 00:47:53;;;;;;;25.55;9.63;;;;;;;-3.26;86.21;99984.75;6271670;22;20099;-70
2024/01/17 00:50:22;;;;;;;22.45;10.45;;;;;;;-3.33;86.22;99992.09;6270209;22;20027;-73
2024/01/17 00:52:48;;;;;;;24.48;10.02;;;;;;;-3.37;86.36;99985.22;6269830;22;20070;-71
2024/01/17 00:55:15;;;;;;;24.63;10.45;;;;;;;-3.36;86.24;99987.78;6270434;22;20405;-71
2024/01/17 00:57:42;;;;;;;23.30;10.55;;;;;;;-3.37;86.25;99986.06;6270132;22;20046;-71
2024/01/17 01:00:08;;;;;;;26.42;10.52;;;;;;;-3.30;86.01;99984.03;6269468;22;20023;-71
2024/01/17 01:02:35;;;;;;;20.35;10.40;;;;;;;-3.33;86.34;99981.50;6272124;22;20407;-70
2024/01/17 01:05:02;;;;;;;26.50;10.32;;;;;;;-3.44;85.95;99984.59;6269138;22;20485;-70
2024/01/17 01:07:29;;;;;;;29.65;10.43;;;;;;;-3.34;85.86;99985.06;6269067;22;20419;-72
2024/01/17 01:09:57;;;;;;;20.73;9.82;;;;;;;-3.41;85.31;99983.63;6272305;22;20442;-72
2024/01/17 01:12:23;;;;;;;26.65;9.75;;;;;;;-3.52;85.58;99989.38;6272030;22;20019;-72
2024/01/17 01:14:50;;;;;;;17.48;9.52;;;;;;;-3.56;85.81;99990.44;6272075;22;20078;-72
2024/01/17 01:17:16;;;;;;;24.38;10.15;;;;;;;-3.62;86.31;99980.09;6271348;22;20077;-72
2024/01/17 01:19:43;;;;;;;23.60;11.55;;;;;;;-3.53;86.71;99979.69;6269996;22;20365;-73
2024/01/17 01:22:09;;;;;;;25.50;10.30;;;;;;;-3.37;86.21;99978.13;6267301;22;20047;-72
2024/01/17 01:24:36;;;;;;;23.20;9.95;;;;;;;-3.61;85.64;99973.84;6267174;22;20019;-71
2024/01/17 01:27:03;;;;;;;27.77;11.13;;;;;;;-3.55;86.24;99964.78;6267746;22;20087;-71
2024/01/17 01:29:30;;;;;;;25.77;10.15;;;;;;;-3.60;86.81;99972.97;6267387;22;20047;-71
2024/01/17 01:31:56;;;;;;;24.00;10.18;;;;;;;-3.72;86.89;99968.16;6267308;22;20111;-70
2024/01/17 01:34:23;;;;;;;25.88;12.02;;;;;;;-3.76;86.92;99962.13;6267915;22;20039;-72
2024/01/17 01:36:49;;;;;;;21.77;10.88;;;;;;;-3.82;87.29;99962.38;6271369;22;20024;-72
2024/01/17 01:39:16;;;;;;;21.77;10.48;;;;;;;-3.82;87.20;99964.16;6269919;22;20362;-73
2024/01/17 01:41:43;;;;;;;28.73;11.02;;;;;;;-3.77;87.33;99959.53;6267856;22;20122;-73
2024/01/17 01:44:09;;;;;;;27.17;11.75;;;;;;;-3.92;87.41;99950.44;6268694;22;20042;-73
2024/01/17 01:46:36;;;;;;;30.65;11.18;;;;;;;-3.86;87.82;99955.50;6268828;22;20077;-73
2024/01/17 01:49:03;;;;;;;27.80;11.93;;;;;;;-3.83;87.32;99954.50;6268786;22;20064;-71
2024/01/17 01:51:30;;;;;;;27.98;11.38;;;;;;;-3.94;87.61;99953.16;6267529;22;20438;-70
2024/01/17 01:54:00;;;;;;;27.15;12.23;;;;;;;-3.94;87.50;99953.16;6267166;22;20028;-71
2024/01/17 01:56:32;;;;;;;28.23;11.20;;;;;;;-4.04;87.99;99951.81;6267246;22;20030;-71
2024/01/17 01:59:01;;;;;;;26.23;11.43;;;;;;;-4.09;88.08;99958.19;6268813;22;20022;-72
2024/01/17 02:01:29;;;;;;;30.05;11.73;;;;;;;-4.01;88.15;99956.13;6269974;22;20351;-72
2024/01/17 02:03:58;;;;;;;30.73;12.10;;;;;;;-4.09;88.21;99959.06;6271327;22;20629;-72
2024/01/17 02:10:12;;;;;;;32.95;12.20;;;;;;;-4.08;88.03;99947.53;6269762;22;20130;-72
2024/01/17 02:12:38;;;;;;;31.02;11.55;;;;;;;-4.13;88.04;99941.59;6270900;22;20027;-73
2024/01/17 02:15:06;;;;;;;29.20;11.63;;;;;;;-4.11;88.31;99934.44;6268685;22;20154;-71
2024/01/17 02:17:33;;;;;;;24.85;11.60;;;;;;;-4.14;88.44;99929.28;6267182;22;20027;-71
2024/01/17 02:20:01;;;;;;;24.60;11.88;;;;;;;-4.13;88.23;99925.72;6267686;22;20415;-71
2024/01/17 02:22:28;;;;;;;25.15;11.75;;;;;;;-4.18;88.05;99919.72;6240320;22;20069;-71
2024/01/17 02:24:55;;;;;;;23.08;12.27;;;;;;;-4.17;88.12;99918.78;6268904;22;20035;-71
2024/01/17 02:27:21;;;;;;;28.00;11.80;;;;;;;-4.15;88.18;99911.66;6268458;22;20093;-71
2024/01/17 02:29:48;;;;;;;25.50;12.15;;;;;;;-4.21;88.14;99911.91;6268787;22;20177;-71
2024/01/17 02:32:16;;;;;;;31.10;11.82;;;;;;;-4.30;88.36;99907.84;6268573;22;20133;-71
2024/01/17 02:34:42;;;;;;;33.40;12.27;;;;;;;-4.33;88.28;99908.00;6242146;22;20019;-71
2024/01/17 02:37:12;;;;;;;33.60;11.82;;;;;;;-4.33;88.47;99902.69;6269354;22;20303;-71
2024/01/17 02:39:38;;;;;;;28.20;12.65;;;;;;;-4.33;88.56;99901.84;6270548;22;20027;-71
2024/01/17 02:42:05;;;;;;;27.65;11.95;;;;;;;-4.35;88.19;99903.66;6270002;22;20023;-71
2024/01/17 02:44:32;;;;;;;23.20;11.30;;;;;;;-4.36;88.82;99901.94;6270686;22;20085;-71
2024/01/17 02:46:58;;;;;;;27.33;11.60;;;;;;;-4.37;88.37;99894.91;6270034;22;20042;-71
2024/01/17 02:49:25;;;;;;;27.00;11.90;;;;;;;-4.37;88.04;99889.63;6268269;22;20043;-70
2024/01/17 02:51:51;;;;;;;32.60;11.30;;;;;;;-4.39;88.48;99886.19;6267816;22;20043;-71
2024/01/17 02:54:18;;;;;;;30.17;11.70;;;;;;;-4.40;88.40;99879.19;6267870;22;20288;-71
2024/01/17 02:56:44;;;;;;;30.50;11.57;;;;;;;-4.42;88.32;99881.03;6268105;22;20023;-72
2024/01/17 02:59:11;;;;;;;24.65;12.38;;;;;;;-4.46;88.12;99881.13;6269110;22;20020;-71
2024/01/17 03:01:38;;;;;;;35.08;13.27;;;;;;;-4.50;88.51;99868.97;6268033;22;20027;-70
2024/01/17 03:04:05;;;;;;;28.27;11.85;;;;;;;-4.47;88.47;99871.47;6267706;22;20435;-71
2024/01/17 03:06:32;;;;;;;25.00;11.88;;;;;;;-4.53;88.27;99865.59;6268486;22;20024;-71
2024/01/17 03:08:58;;;;;;;26.77;12.73;;;;;;;-4.52;88.44;99860.22;6268872;22;20359;-71
2024/01/17 03:11:25;;;;;;;28.25;13.20;;;;;;;-4.62;88.64;99860.66;6270705;22;20102;-72
2024/01/17 03:13:52;;;;;;;26.10;12.60;;;;;;;-4.61;88.57;99854.44;6271194;22;20023;-71
2024/01/17 03:16:19;;;;;;;31.00;12.57;;;;;;;-4.70;88.55;99860.97;6270124;22;20061;-72
2024/01/17 03:18:46;;;;;;;22.73;11.68;;;;;;;-4.74;88.89;99856.69;6272897;22;20027;-73
2024/01/17 03:21:14;;;;;;;26.15;12.73;;;;;;;-4.73;88.80;99851.34;6273249;22;20020;-72
2024/01/17 03:23:40;;;;;;;30.50;11.93;;;;;;;-4.77;88.91;99848.91;6272673;22;20091;-72
2024/01/17 03:26:08;;;;;;;28.35;12.68;;;;;;;-4.78;89.15;99841.88;6273038;22;20047;-72
2024/01/17 03:28:35;;;;;;;22.25;12.10;;;;;;;-4.81;89.40;99844.66;6273238;22;20476;-72
2024/01/17 03:31:02;;;;;;;32.10;12.15;;;;;;;-4.80;89.16;99841.09;6273558;22;20015;-72
2024/01/17 03:33:28;;;;;;;25.88;12.70;;;;;;;-4.82;89.23;99829.69;6272605;22;20026;-72
2024/01/17 03:35:55;;;;;;;31.15;13.45;;;;;;;-4.82;89.07;99832.34;6272965;22;20458;-72
2024/01/17 03:38:22;;;;;;;38.22;12.75;;;;;;;-4.83;89.15;99828.81;6272878;22;20019;-72
2024/01/17 03:40:48;;;;;;;31.23;11.80;;;;;;;-4.88;88.97;99825.53;6272795;22;20027;-72
2024/01/17 03:43:15;;;;;;;24.73;12.88;;;;;;;-4.82;88.91;99819.09;6271865;22;20024;-72
2024/01/17 03:45:42;;;;;;;28.42;12.65;;;;;;;-4.85;88.52;99811.31;6272931;22;20073;-73
2024/01/17 03:48:09;;;;;;;25.15;13.23;;;;;;;-4.91;88.74;99808.91;6273015;22;20024;-72
2024/01/17 03:50:35;;;;;;;27.88;12.13;;;;;;;-4.87;88.65;99810.50;6271577;22;20023;-72
2024/01/17 03:53:03;;;;;;;29.13;11.70;;;;;;;-4.80;88.22;99801.41;6271653;22;20101;-72
2024/01/17 03:55:30;;;;;;;26.30;12.00;;;;;;;-4.76;88.20;99801.22;6271881;22;20354;-71
2024/01/17 03:57:56;;;;;;;22.73;12.43;;;;;;;-4.82;88.12;99792.66;6271673;22;20409;-72
2024/01/17 04:00:23;;;;;;;24.67;12.48;;;;;;;-4.84;88.60;99787.44;6245100;22;20072;-72
2024/01/17 04:02:49;;;;;;;27.15;11.45;;;;;;;-4.84;88.96;99783.94;6272635;22;20024;-71
2024/01/17 04:05:19;;;;;;;42.15;13.25;;;;;;;-4.87;88.54;99784.94;6272635;22;20012;-72
2024/01/17 04:07:45;;;;;;;26.13;12.02;;;;;;;-4.93;88.48;99782.50;6272753;22;20023;-72
2024/01/17 04:10:12;;;;;;;28.42;12.25;;;;;;;-4.94;88.42;99774.66;6272292;22;20020;-72
2024/01/17 04:12:39;;;;;;;27.90;12.32;;;;;;;-4.98;88.87;99771.28;6272386;22;20027;-72
2024/01/17 04:15:06;;;;;;;21.58;11.50;;;;;;;-5.03;88.92;99762.66;6272373;22;20077;-72
2024/01/17 04:17:33;;;;;;;37.03;12.52;;;;;;;-4.99;89.09;99761.63;6272378;22;20026;-73
2024/01/17 04:19:59;;;;;;;28.02;12.93;;;;;;;-5.01;88.54;99760.81;6272318;22;20027;-73
2024/01/17 04:22:26;;;;;;;35.85;12.02;;;;;;;-5.05;88.74;99760.09;6272412;22;20031;-71
2024/01/17 04:24:53;;;;;;;29.38;12.73;;;;;;;-5.09;88.69;99752.34;6271179;22;20023;-71
2024/01/17 04:27:19;;;;;;;37.83;13.13;;;;;;;-5.10;88.93;99755.88;6271522;22;20024;-71
2024/01/17 04:29:46;;;;;;;27.45;12.75;;;;;;;-5.10;88.78;99759.38;6271990;22;20399;-71
2024/01/17 04:32:14;;;;;;;25.67;12.73;;;;;;;-5.06;88.91;99753.06;6271769;22;20024;-71
2024/01/17 04:34:42;;;;;;;30.88;12.95;;;;;;;-5.15;88.70;99758.72;6270682;22;20020;-71
2024/01/17 04:37:08;;;;;;;31.10;13.68;;;;;;;-5.16;89.41;99757.00;6270639;22;20015;-71
2024/01/17 04:39:36;;;;;;;24.90;12.40;;;;;;;-5.31;88.79;99747.03;6270896;22;20031;-71
2024/01/17 04:42:02;;;;;;;27.90;12.52;;;;;;;-5.33;89.45;99744.44;6271168;22;20023;-71
2024/01/17 04:44:30;;;;;;;24.75;12.75;;;;;;;-5.32;89.31;99746.16;6270795;22;20023;-73
2024/01/17 04:46:59;;;;;;;19.73;8.67;;;;;;;-5.20;89.39;99742.16;6271261;22;20049;-71
2024/01/17 04:49:27;;;;;;;27.13;12.57;;;;;;;-5.19;88.81;99741.25;6271077;22;20066;-72
2024/01/17 04:51:55;;;;;;;24.05;11.02;;;;;;;-5.12;89.51;99724.22;6270820;22;20020;-71
2024/01/17 04:54:23;;;;;;;27.88;13.02;;;;;;;-5.14;88.32;99723.44;6270751;22;20024;-74
2024/01/17 04:56:50;;;;;;;22.77;12.35;;;;;;;-5.18;88.95;99721.00;6271492;22;20011;-74
2024/01/17 04:59:17;;;;;;;26.50;12.63;;;;;;;-5.22;88.74;99708.81;6270488;22;20089;-73
2024/01/17 05:01:43;;;;;;;31.90;13.52;;;;;;;-5.29;89.38;99713.47;6243512;22;20035;-73
2024/01/17 05:04:10;;;;;;;25.83;13.02;;;;;;;-5.19;89.20;99709.53;6269922;22;20093;-72
2024/01/17 05:06:36;;;;;;;28.77;12.38;;;;;;;-5.23;89.22;99702.66;6269993;22;20023;-72
2024/01/17 05:09:07;;;;;;;40.00;12.93;;;;;;;-5.27;88.93;99701.06;6271496;22;20023;-71
2024/01/17 05:11:36;;;;;;;41.17;13.25;;;;;;;-5.24;89.03;99695.66;6270841;22;20020;-70
2024/01/17 05:14:02;;;;;;;29.55;12.82;;;;;;;-5.19;89.63;99692.81;6270955;22;20024;-71
2024/01/17 05:16:29;;;;;;;25.17;11.18;;;;;;;-5.32;89.24;99687.16;6269828;22;20020;-72
2024/01/17 05:18:56;;;;;;;29.90;13.18;;;;;;;-5.39;89.40;99680.41;6270427;22;20430;-71
2024/01/17 05:21:22;;;;;;;28.13;12.82;;;;;;;-5.41;89.21;99688.41;6269670;22;20094;-71
2024/01/17 05:23:49;;;;;;;27.90;13.57;;;;;;;-5.34;89.13;99683.72;6270290;22;20019;-72
2024/01/17 05:26:16;;;;;;;39.30;12.48;;;;;;;-5.45;89.67;99681.53;6269846;22;20377;-73
2024/01/17 05:28:42;;;;;;;27.70;12.80;;;;;;;-5.43;89.42;99673.53;6271500;22;20019;-73
2024/01/17 05:31:10;;;;;;;34.35;13.30;;;;;;;-5.42;89.36;99675.25;6270171;22;20126;-71
2024/01/17 05:33:36;;;;;;;23.63;12.55;;;;;;;-5.51;89.51;99672.97;6270268;22;20430;-71
2024/01/17 05:36:04;;;;;;;30.73;13.13;;;;;;;-5.43;89.67;99663.81;6270952;22;20020;-73
2024/01/17 05:38:31;;;;;;;31.33;12.57;;;;;;;-5.37;89.33;99668.00;6270832;22;20016;-73
2024/01/17 05:40:58;;;;;;;28.88;13.10;;;;;;;-5.49;89.61;99665.84;6270877;22;20141;-71
2024/01/17 05:43:24;;;;;;;34.38;12.93;;;;;;;-5.56;89.44;99661.72;6270424;22;20016;-73
2024/01/17 05:45:51;;;;;;;23.73;11.98;;;;;;;-5.45;89.37;99656.88;6242080;22;20020;-71
2024/01/17 05:48:17;;;;;;;34.92;12.52;;;;;;;-5.53;89.23;99661.63;6270048;22;20023;-72
2024/01/17 05:50:45;;;;;;;26.75;11.60;;;;;;;-5.63;89.00;99648.78;6271795;22;20019;-72
2024/01/17 05:53:11;;;;;;;23.60;11.63;;;;;;;-5.65;89.17;99650.63;6270217;22;20024;-74
2024/01/17 05:55:38;;;;;;;28.05;12.77;;;;;;;-5.65;89.10;99641.84;6271175;22;20020;-73
2024/01/17 05:58:04;;;;;;;24.83;12.57;;;;;;;-5.63;88.82;99635.56;6272951;22;20015;-73
2024/01/17 06:00:31;;;;;;;30.35;12.18;;;;;;;-5.65;89.03;99634.78;6272040;22;20024;-73
2024/01/17 06:02:58;;;;;;;30.33;12.35;;;;;;;-5.65;88.65;99632.13;6272054;22;20090;-73
2024/01/17 06:05:24;;;;;;;28.00;11.95;;;;;;;-5.70;88.99;99634.06;6271134;22;20099;-73
2024/01/17 06:07:51;;;;;;;29.17;12.52;;;;;;;-5.66;89.62;99630.38;6271126;22;20069;-73
2024/01/17 06:10:18;;;;;;;26.33;12.50;;;;;;;-5.72;89.06;99619.22;6271141;22;20450;-73
2024/01/17 06:12:44;;;;;;;30.42;13.20;;;;;;;-5.66;89.07;99613.69;6272024;22;20031;-73
2024/01/17 06:15:17;;;;;;;31.73;12.18;;;;;;;-5.53;89.19;99614.91;6271826;22;20353;-73
2024/01/17 06:17:44;;;;;;;26.60;11.55;;;;;;;-5.43;88.42;99613.63;6270867;22;20030;-72
2024/01/17 06:20:11;;;;;;;30.30;12.50;;;;;;;-5.51;88.26;99607.78;6271413;22;20118;-72
2024/01/17 06:22:38;;;;;;;33.42;12.52;;;;;;;-5.39;87.85;99602.00;6270709;22;20024;-71
2024/01/17 06:25:06;;;;;;;31.45;12.32;;;;;;;-5.38;87.84;99602.84;6271358;22;20454;-72
2024/01/17 06:27:33;;;;;;;26.92;12.43;;;;;;;-5.48;87.28;99597.09;6271534;22;20026;-73
2024/01/17 06:30:00;;;;;;;31.73;12.13;;;;;;;-5.56;87.85;99596.56;6258953;22;20030;-73
2024/01/17 06:32:26;;;;;;;28.25;11.15;;;;;;;-5.59;87.86;99594.03;6269768;22;20035;-73
2024/01/17 06:34:53;;;;;;;22.42;11.18;;;;;;;-5.68;88.25;99584.69;6270081;22;20050;-73
2024/01/17 06:37:20;;;;;;;33.40;12.75;;;;;;;-5.71;88.54;99570.75;6271881;22;20512;-73
2024/01/17 06:39:46;;;;;;;33.53;11.82;;;;;;;-5.82;88.58;99576.47;6270959;22;20016;-72
2024/01/17 06:42:16;;;;;;;32.22;11.77;;;;;;;-5.86;89.17;99572.22;6270709;22;20015;-73
2024/01/17 06:44:46;;;;;;;22.75;10.60;;;;;;;-5.85;88.80;99565.16;6273316;22;20438;-73
2024/01/17 06:47:13;;;;;;;28.05;10.82;;;;;;;-5.79;87.98;99572.84;6272382;22;20023;-72
2024/01/17 06:49:41;;;;;;;31.27;10.63;;;;;;;-5.80;88.58;99566.72;6272802;22;20085;-73
2024/01/17 06:52:08;;;;;;;26.45;11.20;;;;;;;-5.80;88.10;99557.94;6273188;22;20103;-74
2024/01/17 06:54:35;;;;;;;34.00;11.57;;;;;;;-5.83;88.05;99548.34;6273783;22;20019;-73
2024/01/17 06:57:02;;;;;;;26.05;10.18;;;;;;;-5.85;88.67;99544.03;6272990;22;20328;-72
2024/01/17 06:59:28;;;;;;;28.40;11.25;;;;;;;-5.89;88.14;99540.69;6272509;22;20020;-74
2024/01/17 07:01:55;;;;;;;31.75;11.32;;;;;;;-5.84;87.72;99537.84;6272252;22;20028;-73
2024/01/17 07:04:22;;;;;;;26.98;10.55;;;;;;;-5.81;88.31;99535.09;6272151;22;20050;-73
2024/01/17 07:06:48;;;;;;;25.58;10.45;;;;;;;-5.79;88.28;99531.47;6272847;22;20398;-73
2024/01/17 07:09:15;;;;;;;24.20;9.60;;;;;;;-5.75;88.06;99530.41;6271927;22;20331;-73
2024/01/17 07:11:42;;;;;;;23.30;10.15;;;;;;;-5.76;87.43;99528.69;6272968;22;20016;-72
2024/01/17 07:14:09;;;;;;;25.63;10.00;;;;;;;-5.73;87.22;99523.28;6272537;22;20106;-72
2024/01/17 07:16:36;;;;;;;26.15;11.23;;;;;;;-5.70;86.95;99517.03;6271833;22;20023;-72
2024/01/17 07:19:03;;;;;;;27.20;9.88;;;;;;;-5.69;86.87;99513.44;6273589;22;20362;-72
2024/01/17 07:21:30;;;;;;;23.70;9.52;;;;;;;-5.64;86.37;99507.06;6272243;22;20510;-72
2024/01/17 07:23:57;;;;;;;21.35;9.55;;;;;;;-5.73;86.15;99496.88;6271960;22;20020;-72
2024/01/17 07:26:24;;;;;;;25.85;9.75;;;;;;;-5.68;86.19;99488.75;6272046;22;20051;-72
2024/01/17 07:28:50;;;;;;;25.98;10.40;;;;;;;-5.65;86.21;99480.72;6271935;22;20027;-72
2024/01/17 07:31:17;;;;;;;26.33;10.13;;;;;;;-5.74;87.03;99468.75;6270518;22;20512;-72
2024/01/17 07:33:44;;;;;;;27.27;9.93;;;;;;;-5.81;87.13;99472.56;6270438;22;20015;-74
2024/01/17 07:36:11;;;;;;;26.13;10.65;;;;;;;-5.76;87.02;99459.16;6272223;22;20085;-73
2024/01/17 07:38:37;;;;;;;27.00;9.98;;;;;;;-5.72;86.93;99451.06;6272382;22;20043;-73
2024/01/17 07:41:04;;;;;;;22.20;9.55;;;;;;;-5.70;87.14;99451.84;6246713;22;20035;-73
2024/01/17 07:43:31;;;;;;;24.95;10.05;;;;;;;-5.71;87.50;99438.72;6272373;22;20055;-73
2024/01/17 07:45:58;;;;;;;25.77;10.48;;;;;;;-5.67;86.44;99433.22;6245543;22;20077;-74
2024/01/17 07:48:25;;;;;;;30.75;11.23;;;;;;;-5.65;86.69;99434.03;6270710;22;20119;-73
2024/01/17 07:50:52;;;;;;;24.55;10.50;;;;;;;-5.67;86.87;99435.88;6270401;22;20019;-73
2024/01/17 07:53:18;;;;;;;22.35;10.30;;;;;;;-5.51;86.70;99432.56;6269191;22;20042;-73
2024/01/17 07:55:46;;;;;;;25.23;10.25;;;;;;;-5.57;86.85;99428.41;6270650;22;20019;-74
2024/01/17 07:58:12;;;;;;;23.60;10.45;;;;;;;-5.52;86.51;99420.28;6270004;22;20097;-73
2024/01/17 08:00:39;;;;;;;23.40;10.35;;;;;;;-5.50;86.12;99421.09;6270902;22;20074;-73
2024/01/17 08:03:06;;;;;;;29.42;10.93;;;;;;;-5.53;86.11;99423.88;6271871;22;20090;-73
2024/01/17 08:05:33;;;;;;;32.03;10.52;;;;;;;-5.60;86.78;99413.56;6271147;22;20016;-73
2024/01/17 08:08:00;;;;;;;20.92;9.85;;;;;;;-5.70;86.35;99408.75;6270504;22;20031;-73
2024/01/17 08:10:27;;;;;;;33.75;11.05;;;;;;;-5.64;86.39;99412.00;6270742;22;20397;-73
2024/01/17 08:12:54;;;;;;;19.63;10.48;;;;;;;-5.47;85.87;99392.72;6271103;22;20023;-73
2024/01/17 08:15:21;;;;;;;26.45;11.80;;;;;;;-5.33;85.09;99386.84;6270569;22;20474;-73
2024/01/17 08:17:50;;;;;;;24.02;11.13;;;;;;;-5.24;84.20;99383.78;6271329;22;20349;-73
2024/01/17 08:20:17;;;;;;;25.75;11.38;;;;;;;-5.28;84.63;99376.06;6270754;22;20020;-73
2024/01/17 08:22:44;;;;;;;23.27;9.23;;;;;;;-5.30;83.76;99377.00;6270110;22;20016;-73
2024/01/17 08:25:10;;;;;;;27.60;10.38;;;;;;;-5.14;83.11;99374.53;6269447;22;20019;-73
2024/01/17 08:27:37;;;;;;;28.55;9.35;;;;;;;-5.10;83.04;99370.78;6271094;22;20091;-74
2024/01/17 08:30:04;;;;;;;28.40;9.50;;;;;;;-4.94;82.14;99375.38;6271762;22;20015;-74
2024/01/17 08:32:31;;;;;;;16.60;8.70;;;;;;;-4.90;81.94;99372.53;6270969;22;20073;-74
2024/01/17 08:34:58;;;;;;;26.80;10.00;;;;;;;-4.91;82.17;99367.28;6269750;22;20050;-74
2024/01/17 08:37:25;;;;;;;24.25;10.07;;;;;;;-4.76;81.82;99371.88;6270517;22;20019;-74
2024/01/17 08:39:53;;;;;;;23.20;9.75;;;;;;;-4.81;81.34;99373.91;6271981;22;20031;-74
2024/01/17 08:42:20;;;;;;;22.40;9.85;;;;;;;-4.63;80.71;99375.66;6270140;22;20081;-72
2024/01/17 08:44:46;;;;;;;22.25;9.48;;;;;;;-4.75;79.94;99353.28;6270428;22;20327;-72
2024/01/17 08:47:13;;;;;;;20.88;9.27;;;;;;;-4.60;79.48;99354.34;6220546;22;1123827;-73
2024/01/17 08:49:40;;;;;;;18.95;9.23;;;;;;;-4.79;79.67;99343.78;6274202;22;20073;-73
2024/01/17 08:52:08;;;;;;;21.65;10.05;;;;;;;-4.76;80.47;99348.06;6272791;22;20051;-72
2024/01/17 08:54:35;;;;;;;19.88;9.80;;;;;;;-4.71;80.61;99335.50;6274532;22;20099;-72
2024/01/17 08:57:02;;;;;;;21.67;9.52;;;;;;;-4.74;80.05;99335.63;6273447;22;20141;-72
2024/01/17 08:59:33;;;;;;;25.13;10.63;;;;;;;-4.81;80.74;99318.34;6273480;22;20026;-73
2024/01/17 09:02:02;;;;;;;19.13;10.13;;;;;;;-4.73;80.83;99313.53;6274819;22;20031;-74
2024/01/17 09:04:29;;;;;;;27.88;10.68;;;;;;;-4.57;80.51;99311.84;6274467;22;20327;-72
2024/01/17 09:06:56;;;;;;;28.90;10.98;;;;;;;-4.58;79.93;99320.72;6272978;22;20093;-72
2024/01/17 09:09:25;;;;;;;18.13;9.45;;;;;;;-4.61;79.75;99310.31;6245767;22;20050;-72
2024/01/17 09:11:53;;;;;;;20.60;9.68;;;;;;;-4.68;80.36;99315.97;6273393;22;20024;-72
2024/01/17 09:14:21;;;;;;;22.92;10.02;;;;;;;-4.59;79.13;99313.72;6273980;22;20037;-72
2024/01/17 09:16:52;;;;;;;22.67;9.70;;;;;;;-4.59;79.95;99313.72;6246046;22;20049;-73
2024/01/17 09:19:22;;;;;;;20.98;9.85;;;;;;;-4.65;79.06;99314.00;6274873;22;20023;-72
2024/01/17 09:21:52;;;;;;;26.07;10.27;;;;;;;-4.60;79.36;99312.00;6274108;22;20088;-72
2024/01/17 09:24:20;;;;;;;23.73;9.68;;;;;;;-4.65;78.76;99308.72;6271595;22;20454;-73
2024/01/17 09:26:51;;;;;;;20.85;10.20;;;;;;;-4.51;79.21;99300.97;6272668;22;20081;-72
2024/01/17 09:29:18;;;;;;;23.37;9.07;;;;;;;-4.38;78.85;99293.28;6271757;22;20356;-72
2024/01/17 09:31:45;;;;;;;18.67;9.23;;;;;;;-4.14;77.26;99293.84;6267486;22;20314;-72
2024/01/17 09:34:11;;;;;;;24.60;9.55;;;;;;;-4.21;77.47;99295.06;6274483;22;20357;-72
2024/01/17 09:36:38;;;;;;;23.23;9.60;;;;;;;-4.03;76.99;99291.50;6271282;22;20077;-76
2024/01/17 09:39:06;;;;;;;17.83;9.00;;;;;;;-4.20;76.14;99284.41;6272147;22;20019;-76
2024/01/17 09:41:32;;;;;;;25.83;9.50;;;;;;;-4.23;76.75;99291.66;6270647;22;20370;-76
2024/01/17 09:44:00;;;;;;;24.27;9.73;;;;;;;-4.36;77.28;99288.75;6270811;22;20047;-76
2024/01/17 09:46:28;;;;;;;17.83;8.57;;;;;;;-4.31;77.30;99288.53;6269012;22;20445;-76
2024/01/17 09:48:55;;;;;;;22.05;10.13;;;;;;;-4.26;77.48;99283.84;6270079;22;20073;-76
2024/01/17 09:51:27;;;;;;;19.92;9.13;;;;;;;-3.94;76.06;99269.81;6268172;22;20455;-76
2024/01/17 09:53:59;;;;;;;23.77;9.68;;;;;;;-3.67;75.98;99266.66;6269941;22;20024;-76
2024/01/17 09:56:28;;;;;;;19.75;9.27;;;;;;;-3.75;75.33;99256.47;6271169;22;20023;-76
2024/01/17 09:58:56;;;;;;;21.13;9.55;;;;;;;-3.57;75.02;99257.28;6271175;22;20060;-76
2024/01/17 10:01:26;;;;;;;24.40;10.90;;;;;;;-3.49;73.84;99247.13;6243270;22;20015;-76
2024/01/17 10:03:55;;;;;;;23.55;10.48;;;;;;;-3.31;73.68;99238.16;6271673;22;20026;-77
2024/01/17 10:06:23;;;;;;;22.75;10.13;;;;;;;-3.30;72.90;99231.91;6271310;22;20083;-76
2024/01/17 10:08:50;;;;;;;26.90;10.43;;;;;;;-3.45;73.11;99222.13;6269748;22;20098;-77
2024/01/17 10:11:17;;;;;;;27.35;10.75;;;;;;;-3.36;73.32;99216.34;6272381;22;20019;-77
2024/01/17 10:13:44;;;;;;;36.58;11.85;;;;;;;-3.18;72.99;99211.81;6270123;22;20023;-77
2024/01/17 10:16:12;;;;;;;38.35;12.00;;;;;;;-3.04;72.47;99205.72;6270959;22;20012;-77
2024/01/17 10:18:38;;;;;;;31.02;11.02;;;;;;;-3.07;71.73;99203.22;6271459;22;20019;-77
2024/01/17 10:21:07;;;;;;;33.17;11.52;;;;;;;-3.52;73.47;99202.22;6272212;22;20354;-77
2024/01/17 10:23:37;;;;;;;30.42;10.77;;;;;;;-3.24;73.87;99190.94;6269501;22;20431;-76
2024/01/17 10:26:04;;;;;;;29.40;9.88;;;;;;;-3.35;72.43;99182.72;6270869;22;20039;-76
2024/01/17 10:28:34;;;;;;;26.50;10.75;;;;;;;-3.38;73.23;99172.31;6270935;22;20023;-76
2024/01/17 10:31:06;;;;;;;26.33;9.48;;;;;;;-3.16;72.85;99163.97;6266602;22;20015;-76
2024/01/17 10:33:34;;;;;;;21.35;9.70;;;;;;;-3.33;73.19;99159.63;6270787;22;20030;-75
2024/01/17 10:36:01;;;;;;;19.52;8.73;;;;;;;-3.18;72.65;99152.63;6269971;22;20016;-76
2024/01/17 10:38:32;;;;;;;22.52;10.00;;;;;;;-2.91;72.78;99145.72;6270456;22;20460;-76
2024/01/17 10:41:05;;;;;;;18.45;10.00;;;;;;;-2.53;71.74;99150.56;6271339;22;20024;-76
2024/01/17 10:43:33;;;;;;;25.83;9.65;;;;;;;-2.56;71.35;99140.97;6271269;22;20016;-76
2024/01/17 10:46:09;;;;;;;22.05;9.77;;;;;;;-2.53;71.54;99129.31;6251038;22;20397;-76
2024/01/17 10:48:37;;;;;;;17.42;8.85;;;;;;;-2.18;70.34;99119.22;6217002;23;20027;-75
2024/01/17 10:51:06;;;;;;;24.52;9.73;;;;;;;-2.25;70.27;99118.72;6241089;23;20020;-77
2024/01/17 10:53:34;;;;;;;22.95;9.70;;;;;;;-2.40;69.85;99111.69;6235987;23;20040;-76
2024/01/17 10:56:21;;;;;;;19.75;9.52;;;;;;;-2.24;69.49;99104.50;6237250;23;20102;-77
2024/01/17 10:58:52;;;;;;;25.40;10.45;;;;;;;-2.21;69.71;99103.44;6241712;23;20031;-77
2024/01/17 11:01:48;;;;;;;23.52;9.00;;;;;;;-2.05;69.38;99098.88;6240323;23;20029;-77
2024/01/17 11:04:20;;;;;;;18.60;9.07;;;;;;;-1.51;68.89;99092.81;6241577;23;20465;-77
2024/01/17 11:06:49;;;;;;;23.80;10.07;;;;;;;-1.39;67.78;99084.03;6241012;23;20032;-77
2024/01/17 11:09:18;;;;;;;15.88;9.13;;;;;;;-1.21;66.46;99077.50;6240908;23;20095;-74
2024/01/17 11:11:46;;;;;;;25.02;9.75;;;;;;;-0.80;66.32;99073.88;6214208;23;20326;-75
2024/01/17 11:14:15;;;;;;;20.58;8.85;;;;;;;-1.24;67.27;99069.72;6240197;23;20081;-74
2024/01/17 11:16:46;;;;;;;19.27;9.05;;;;;;;-1.13;66.32;99055.72;6239878;23;20089;-75
2024/01/17 11:19:15;;;;;;;20.52;9.35;;;;;;;-1.23;66.42;99050.16;6239466;23;20020;-74
2024/01/17 11:21:42;;;;;;;17.08;8.85;;;;;;;-1.84;68.88;99040.88;6239048;23;20028;-75
2024/01/17 11:24:39;;;;;;;23.23;9.40;;;;;;;-1.32;67.99;99034.81;6238545;23;20016;-74